sensor_id;sensor_type;location;lat;lon;timestamp;P1;durP1;ratioP1;P2;durP2;ratioP2
37715;SDS011;23562;50.540;12.504;2023-10-19T00:00:47;15.65;;;11.82;;
37715;SDS011;23562;50.540;12.504;2023-10-19T00:03:16;22.40;;;12.43;;
37715;SDS011;23562;50.540;12.504;2023-10-19T00:05:43;19.73;;;13.15;;
37715;SDS011;23562;50.540;12.504;2023-10-19T00:08:12;19.27;;;12.27;;
37715;SDS011;23562;50.540;12.504;2023-10-19T00:10:37;18.02;;;13.10;;
37715;SDS011;23562;50.540;12.504;2023-10-19T00:13:03;21.35;;;13.13;;
37715;SDS011;23562;50.540;12.504;2023-10-19T00:15:33;17.10;;;12.38;;
37715;SDS011;23562;50.540;12.504;2023-10-19T00:18:00;17.23;;;11.85;;
37715;SDS011;23562;50.540;12.504;2023-10-19T00:20:31;17.77;;;11.52;;
37715;SDS011;23562;50.540;12.504;2023-10-19T00:23:06;19.83;;;11.88;;
37715;SDS011;23562;50.540;12.504;2023-10-19T00:25:31;16.55;;;11.82;;
37715;SDS011;23562;50.540;12.504;2023-10-19T00:27:59;15.82;;;11.65;;
37715;SDS011;23562;50.540;12.504;2023-10-19T00:30:26;18.98;;;11.90;;
37715;SDS011;23562;50.540;12.504;2023-10-19T00:32:56;19.87;;;12.17;;
37715;SDS011;23562;50.540;12.504;2023-10-19T00:35:21;14.90;;;11.07;;
37715;SDS011;23562;50.540;12.504;2023-10-19T00:37:55;23.73;;;11.45;;
37715;SDS011;23562;50.540;12.504;2023-10-19T00:40:24;18.17;;;12.65;;
37715;SDS011;23562;50.540;12.504;2023-10-19T00:43:04;17.63;;;12.13;;
37715;SDS011;23562;50.540;12.504;2023-10-19T00:45:35;16.98;;;11.45;;
37715;SDS011;23562;50.540;12.504;2023-10-19T00:48:05;18.67;;;12.30;;
37715;SDS011;23562;50.540;12.504;2023-10-19T00:50:33;17.83;;;11.95;;
37715;SDS011;23562;50.540;12.504;2023-10-19T00:52:58;18.73;;;11.73;;
37715;SDS011;23562;50.540;12.504;2023-10-19T00:55:23;17.88;;;12.30;;
37715;SDS011;23562;50.540;12.504;2023-10-19T00:57:51;17.33;;;12.07;;
37715;SDS011;23562;50.540;12.504;2023-10-19T01:00:19;18.77;;;11.77;;
37715;SDS011;23562;50.540;12.504;2023-10-19T01:02:54;21.00;;;12.30;;
37715;SDS011;23562;50.540;12.504;2023-10-19T01:05:24;17.65;;;12.35;;
37715;SDS011;23562;50.540;12.504;2023-10-19T01:07:53;19.40;;;12.52;;
37715;SDS011;23562;50.540;12.504;2023-10-19T01:10:22;17.33;;;12.23;;
37715;SDS011;23562;50.540;12.504;2023-10-19T01:12:53;18.15;;;12.32;;
37715;SDS011;23562;50.540;12.504;2023-10-19T01:15:19;19.03;;;13.07;;
37715;SDS011;23562;50.540;12.504;2023-10-19T01:18:05;19.45;;;11.95;;
37715;SDS011;23562;50.540;12.504;2023-10-19T01:20:32;17.08;;;11.65;;
37715;SDS011;23562;50.540;12.504;2023-10-19T01:23:00;18.77;;;12.38;;
37715;SDS011;23562;50.540;12.504;2023-10-19T01:28:09;18.20;;;12.48;;
37715;SDS011;23562;50.540;12.504;2023-10-19T01:30:35;20.77;;;12.30;;
37715;SDS011;23562;50.540;12.504;2023-10-19T01:33:04;19.42;;;12.80;;
37715;SDS011;23562;50.540;12.504;2023-10-19T01:35:29;21.98;;;13.00;;
37715;SDS011;23562;50.540;12.504;2023-10-19T01:38:14;21.40;;;12.73;;
37715;SDS011;23562;50.540;12.504;2023-10-19T01:40:40;19.58;;;13.45;;
37715;SDS011;23562;50.540;12.504;2023-10-19T01:45:44;21.50;;;13.57;;
37715;SDS011;23562;50.540;12.504;2023-10-19T01:48:10;22.15;;;14.90;;
37715;SDS011;23562;50.540;12.504;2023-10-19T01:50:37;21.08;;;12.90;;
37715;SDS011;23562;50.540;12.504;2023-10-19T01:53:04;19.73;;;13.85;;
37715;SDS011;23562;50.540;12.504;2023-10-19T01:55:38;21.27;;;14.50;;
37715;SDS011;23562;50.540;12.504;2023-10-19T01:58:03;22.67;;;15.02;;
37715;SDS011;23562;50.540;12.504;2023-10-19T02:00:28;21.60;;;13.77;;
37715;SDS011;23562;50.540;12.504;2023-10-19T02:02:53;21.10;;;14.03;;
37715;SDS011;23562;50.540;12.504;2023-10-19T02:05:18;20.77;;;13.47;;
37715;SDS011;23562;50.540;12.504;2023-10-19T02:07:44;19.65;;;14.15;;
37715;SDS011;23562;50.540;12.504;2023-10-19T02:10:09;21.38;;;13.45;;
37715;SDS011;23562;50.540;12.504;2023-10-19T02:12:35;21.58;;;11.88;;
37715;SDS011;23562;50.540;12.504;2023-10-19T02:15:00;20.52;;;13.27;;
37715;SDS011;23562;50.540;12.504;2023-10-19T02:17:25;17.40;;;13.10;;
37715;SDS011;23562;50.540;12.504;2023-10-19T02:19:51;22.30;;;12.68;;
37715;SDS011;23562;50.540;12.504;2023-10-19T02:22:16;18.52;;;12.63;;
37715;SDS011;23562;50.540;12.504;2023-10-19T02:24:42;18.08;;;12.55;;
37715;SDS011;23562;50.540;12.504;2023-10-19T02:27:07;23.92;;;12.85;;
37715;SDS011;23562;50.540;12.504;2023-10-19T02:29:32;22.48;;;13.43;;
37715;SDS011;23562;50.540;12.504;2023-10-19T02:31:57;19.20;;;12.95;;
37715;SDS011;23562;50.540;12.504;2023-10-19T02:34:28;19.23;;;12.55;;
37715;SDS011;23562;50.540;12.504;2023-10-19T02:36:54;21.03;;;12.87;;
37715;SDS011;23562;50.540;12.504;2023-10-19T02:39:19;19.75;;;13.15;;
37715;SDS011;23562;50.540;12.504;2023-10-19T02:41:48;18.00;;;12.18;;
37715;SDS011;23562;50.540;12.504;2023-10-19T02:44:22;17.90;;;12.13;;
37715;SDS011;23562;50.540;12.504;2023-10-19T02:46:49;17.10;;;11.70;;
37715;SDS011;23562;50.540;12.504;2023-10-19T02:49:18;20.35;;;12.40;;
37715;SDS011;23562;50.540;12.504;2023-10-19T02:51:44;17.20;;;12.88;;
37715;SDS011;23562;50.540;12.504;2023-10-19T02:54:12;22.25;;;12.70;;
37715;SDS011;23562;50.540;12.504;2023-10-19T02:56:45;20.65;;;12.23;;
37715;SDS011;23562;50.540;12.504;2023-10-19T02:59:15;23.30;;;13.20;;
37715;SDS011;23562;50.540;12.504;2023-10-19T03:01:41;20.85;;;12.23;;
37715;SDS011;23562;50.540;12.504;2023-10-19T03:04:09;19.98;;;12.18;;
37715;SDS011;23562;50.540;12.504;2023-10-19T03:06:37;15.55;;;11.88;;
37715;SDS011;23562;50.540;12.504;2023-10-19T03:09:05;17.30;;;12.35;;
37715;SDS011;23562;50.540;12.504;2023-10-19T03:11:49;19.95;;;12.05;;
37715;SDS011;23562;50.540;12.504;2023-10-19T03:14:18;20.25;;;11.90;;
37715;SDS011;23562;50.540;12.504;2023-10-19T03:16:44;15.95;;;12.10;;
37715;SDS011;23562;50.540;12.504;2023-10-19T03:19:10;18.15;;;13.07;;
37715;SDS011;23562;50.540;12.504;2023-10-19T03:21:36;20.20;;;12.75;;
37715;SDS011;23562;50.540;12.504;2023-10-19T03:24:08;16.75;;;12.60;;
37715;SDS011;23562;50.540;12.504;2023-10-19T03:26:52;18.90;;;12.68;;
37715;SDS011;23562;50.540;12.504;2023-10-19T03:29:19;18.77;;;11.82;;
37715;SDS011;23562;50.540;12.504;2023-10-19T03:31:47;18.95;;;12.98;;
37715;SDS011;23562;50.540;12.504;2023-10-19T03:34:13;20.67;;;13.13;;
37715;SDS011;23562;50.540;12.504;2023-10-19T03:36:38;19.95;;;13.27;;
37715;SDS011;23562;50.540;12.504;2023-10-19T03:39:04;19.92;;;13.73;;
37715;SDS011;23562;50.540;12.504;2023-10-19T03:41:36;19.33;;;12.70;;
37715;SDS011;23562;50.540;12.504;2023-10-19T03:44:02;23.90;;;14.05;;
37715;SDS011;23562;50.540;12.504;2023-10-19T03:46:28;19.75;;;12.95;;
37715;SDS011;23562;50.540;12.504;2023-10-19T03:49:02;17.52;;;12.77;;
37715;SDS011;23562;50.540;12.504;2023-10-19T03:51:36;19.05;;;13.20;;
37715;SDS011;23562;50.540;12.504;2023-10-19T03:54:05;19.48;;;13.85;;
37715;SDS011;23562;50.540;12.504;2023-10-19T03:56:45;17.30;;;12.93;;
37715;SDS011;23562;50.540;12.504;2023-10-19T03:59:10;20.92;;;12.90;;
37715;SDS011;23562;50.540;12.504;2023-10-19T04:01:35;19.77;;;13.52;;
37715;SDS011;23562;50.540;12.504;2023-10-19T04:04:01;22.13;;;14.03;;
37715;SDS011;23562;50.540;12.504;2023-10-19T04:06:26;22.90;;;13.23;;
37715;SDS011;23562;50.540;12.504;2023-10-19T04:08:52;20.13;;;13.38;;
37715;SDS011;23562;50.540;12.504;2023-10-19T04:11:17;18.17;;;12.43;;
37715;SDS011;23562;50.540;12.504;2023-10-19T04:13:57;18.42;;;12.82;;
37715;SDS011;23562;50.540;12.504;2023-10-19T04:16:24;18.08;;;12.05;;
37715;SDS011;23562;50.540;12.504;2023-10-19T04:18:49;17.70;;;12.13;;
37715;SDS011;23562;50.540;12.504;2023-10-19T04:21:14;19.92;;;12.77;;
37715;SDS011;23562;50.540;12.504;2023-10-19T04:23:40;18.17;;;13.35;;
37715;SDS011;23562;50.540;12.504;2023-10-19T04:26:05;15.57;;;11.32;;
37715;SDS011;23562;50.540;12.504;2023-10-19T04:28:35;16.95;;;12.48;;
37715;SDS011;23562;50.540;12.504;2023-10-19T04:31:09;20.35;;;12.55;;
37715;SDS011;23562;50.540;12.504;2023-10-19T04:33:38;17.80;;;12.40;;
37715;SDS011;23562;50.540;12.504;2023-10-19T04:36:04;17.58;;;12.73;;
37715;SDS011;23562;50.540;12.504;2023-10-19T04:38:33;17.08;;;12.00;;
37715;SDS011;23562;50.540;12.504;2023-10-19T04:41:08;20.73;;;12.30;;
37715;SDS011;23562;50.540;12.504;2023-10-19T04:43:34;18.83;;;12.82;;
37715;SDS011;23562;50.540;12.504;2023-10-19T04:45:59;19.40;;;11.77;;
37715;SDS011;23562;50.540;12.504;2023-10-19T04:48:26;17.70;;;11.63;;
37715;SDS011;23562;50.540;12.504;2023-10-19T04:50:51;16.00;;;11.35;;
37715;SDS011;23562;50.540;12.504;2023-10-19T04:53:16;18.08;;;12.32;;
37715;SDS011;23562;50.540;12.504;2023-10-19T04:55:41;18.50;;;11.90;;
37715;SDS011;23562;50.540;12.504;2023-10-19T04:58:07;16.83;;;12.73;;
37715;SDS011;23562;50.540;12.504;2023-10-19T05:00:32;19.10;;;12.00;;
37715;SDS011;23562;50.540;12.504;2023-10-19T05:02:58;21.20;;;12.40;;
37715;SDS011;23562;50.540;12.504;2023-10-19T05:05:23;18.48;;;13.07;;
37715;SDS011;23562;50.540;12.504;2023-10-19T05:07:48;19.20;;;13.37;;
37715;SDS011;23562;50.540;12.504;2023-10-19T05:10:13;19.05;;;13.93;;
37715;SDS011;23562;50.540;12.504;2023-10-19T05:12:39;27.60;;;15.87;;
37715;SDS011;23562;50.540;12.504;2023-10-19T05:15:04;48.23;;;30.17;;
37715;SDS011;23562;50.540;12.504;2023-10-19T05:17:30;105.95;;;59.47;;
37715;SDS011;23562;50.540;12.504;2023-10-19T05:19:56;105.93;;;54.28;;
37715;SDS011;23562;50.540;12.504;2023-10-19T05:22:21;76.55;;;40.38;;
37715;SDS011;23562;50.540;12.504;2023-10-19T05:24:49;40.75;;;24.23;;
37715;SDS011;23562;50.540;12.504;2023-10-19T05:27:14;32.65;;;22.00;;
37715;SDS011;23562;50.540;12.504;2023-10-19T05:29:40;33.95;;;21.73;;
37715;SDS011;23562;50.540;12.504;2023-10-19T05:32:05;31.23;;;20.75;;
37715;SDS011;23562;50.540;12.504;2023-10-19T05:34:30;33.23;;;19.77;;
37715;SDS011;23562;50.540;12.504;2023-10-19T05:36:57;28.10;;;20.10;;
37715;SDS011;23562;50.540;12.504;2023-10-19T05:39:27;25.98;;;17.38;;
37715;SDS011;23562;50.540;12.504;2023-10-19T05:41:55;29.08;;;18.88;;
37715;SDS011;23562;50.540;12.504;2023-10-19T05:44:20;31.00;;;19.95;;
37715;SDS011;23562;50.540;12.504;2023-10-19T05:46:46;28.33;;;18.75;;
37715;SDS011;23562;50.540;12.504;2023-10-19T05:49:11;25.75;;;18.20;;
37715;SDS011;23562;50.540;12.504;2023-10-19T05:51:37;24.13;;;16.58;;
37715;SDS011;23562;50.540;12.504;2023-10-19T05:54:02;25.85;;;17.23;;
37715;SDS011;23562;50.540;12.504;2023-10-19T05:56:31;24.88;;;17.77;;
37715;SDS011;23562;50.540;12.504;2023-10-19T05:58:59;26.65;;;17.92;;
37715;SDS011;23562;50.540;12.504;2023-10-19T06:01:24;24.98;;;17.92;;
37715;SDS011;23562;50.540;12.504;2023-10-19T06:03:49;30.33;;;19.25;;
37715;SDS011;23562;50.540;12.504;2023-10-19T06:06:15;23.80;;;15.70;;
37715;SDS011;23562;50.540;12.504;2023-10-19T06:08:41;19.83;;;14.33;;
37715;SDS011;23562;50.540;12.504;2023-10-19T06:11:06;24.85;;;15.27;;
37715;SDS011;23562;50.540;12.504;2023-10-19T06:13:31;20.63;;;14.13;;
37715;SDS011;23562;50.540;12.504;2023-10-19T06:15:56;21.45;;;15.32;;
37715;SDS011;23562;50.540;12.504;2023-10-19T06:18:21;18.73;;;13.48;;
37715;SDS011;23562;50.540;12.504;2023-10-19T06:20:47;24.65;;;14.90;;
37715;SDS011;23562;50.540;12.504;2023-10-19T06:23:13;22.38;;;13.95;;
37715;SDS011;23562;50.540;12.504;2023-10-19T06:25:38;20.03;;;14.33;;
37715;SDS011;23562;50.540;12.504;2023-10-19T06:28:04;19.90;;;13.02;;
37715;SDS011;23562;50.540;12.504;2023-10-19T06:30:29;19.98;;;14.52;;
37715;SDS011;23562;50.540;12.504;2023-10-19T06:32:56;20.73;;;13.90;;
37715;SDS011;23562;50.540;12.504;2023-10-19T06:35:22;19.15;;;13.98;;
37715;SDS011;23562;50.540;12.504;2023-10-19T06:37:48;23.35;;;14.68;;
37715;SDS011;23562;50.540;12.504;2023-10-19T06:40:13;21.98;;;14.93;;
37715;SDS011;23562;50.540;12.504;2023-10-19T06:42:43;27.23;;;16.33;;
37715;SDS011;23562;50.540;12.504;2023-10-19T06:45:08;20.77;;;14.40;;
37715;SDS011;23562;50.540;12.504;2023-10-19T06:47:34;25.63;;;16.33;;
37715;SDS011;23562;50.540;12.504;2023-10-19T06:50:04;21.40;;;14.63;;
37715;SDS011;23562;50.540;12.504;2023-10-19T06:52:30;22.17;;;14.73;;
37715;SDS011;23562;50.540;12.504;2023-10-19T06:54:57;22.17;;;15.60;;
37715;SDS011;23562;50.540;12.504;2023-10-19T06:57:22;21.13;;;14.73;;
37715;SDS011;23562;50.540;12.504;2023-10-19T06:59:47;21.70;;;15.83;;
37715;SDS011;23562;50.540;12.504;2023-10-19T07:02:12;21.98;;;15.52;;
37715;SDS011;23562;50.540;12.504;2023-10-19T07:04:38;23.60;;;16.10;;
37715;SDS011;23562;50.540;12.504;2023-10-19T07:07:03;23.55;;;15.65;;
37715;SDS011;23562;50.540;12.504;2023-10-19T07:09:28;23.58;;;16.48;;
37715;SDS011;23562;50.540;12.504;2023-10-19T07:11:54;25.77;;;16.08;;
37715;SDS011;23562;50.540;12.504;2023-10-19T07:14:20;23.02;;;15.57;;
37715;SDS011;23562;50.540;12.504;2023-10-19T07:16:47;21.52;;;15.70;;
37715;SDS011;23562;50.540;12.504;2023-10-19T07:19:12;23.10;;;14.77;;
37715;SDS011;23562;50.540;12.504;2023-10-19T07:21:38;21.83;;;14.63;;
37715;SDS011;23562;50.540;12.504;2023-10-19T07:24:07;26.70;;;16.70;;
37715;SDS011;23562;50.540;12.504;2023-10-19T07:26:34;26.30;;;15.98;;
37715;SDS011;23562;50.540;12.504;2023-10-19T07:29:06;21.95;;;15.52;;
37715;SDS011;23562;50.540;12.504;2023-10-19T07:31:35;24.10;;;15.50;;
37715;SDS011;23562;50.540;12.504;2023-10-19T07:34:00;22.15;;;13.80;;
37715;SDS011;23562;50.540;12.504;2023-10-19T07:36:26;21.95;;;15.35;;
37715;SDS011;23562;50.540;12.504;2023-10-19T07:38:51;21.92;;;15.10;;
37715;SDS011;23562;50.540;12.504;2023-10-19T07:41:16;21.75;;;15.20;;
37715;SDS011;23562;50.540;12.504;2023-10-19T07:43:41;23.50;;;15.73;;
37715;SDS011;23562;50.540;12.504;2023-10-19T07:46:08;24.63;;;15.77;;
37715;SDS011;23562;50.540;12.504;2023-10-19T07:48:33;23.63;;;15.70;;
37715;SDS011;23562;50.540;12.504;2023-10-19T07:50:58;22.58;;;15.77;;
37715;SDS011;23562;50.540;12.504;2023-10-19T07:53:24;24.35;;;17.23;;
37715;SDS011;23562;50.540;12.504;2023-10-19T07:55:50;24.88;;;16.17;;
37715;SDS011;23562;50.540;12.504;2023-10-19T07:58:16;20.98;;;14.93;;
37715;SDS011;23562;50.540;12.504;2023-10-19T08:00:41;20.35;;;15.90;;
37715;SDS011;23562;50.540;12.504;2023-10-19T08:03:07;20.35;;;14.55;;
37715;SDS011;23562;50.540;12.504;2023-10-19T08:05:34;21.08;;;14.38;;
37715;SDS011;23562;50.540;12.504;2023-10-19T08:07:59;23.08;;;15.18;;
37715;SDS011;23562;50.540;12.504;2023-10-19T08:10:25;19.58;;;14.57;;
37715;SDS011;23562;50.540;12.504;2023-10-19T08:12:51;18.83;;;13.90;;
37715;SDS011;23562;50.540;12.504;2023-10-19T08:15:17;25.38;;;15.13;;
37715;SDS011;23562;50.540;12.504;2023-10-19T08:17:44;21.70;;;14.18;;
37715;SDS011;23562;50.540;12.504;2023-10-19T08:20:10;21.48;;;14.38;;
37715;SDS011;23562;50.540;12.504;2023-10-19T08:22:41;21.38;;;14.63;;
37715;SDS011;23562;50.540;12.504;2023-10-19T08:25:06;22.77;;;14.43;;
37715;SDS011;23562;50.540;12.504;2023-10-19T08:27:37;20.00;;;13.63;;
37715;SDS011;23562;50.540;12.504;2023-10-19T08:30:02;21.45;;;13.90;;
37715;SDS011;23562;50.540;12.504;2023-10-19T08:32:28;21.73;;;14.90;;
37715;SDS011;23562;50.540;12.504;2023-10-19T08:34:53;22.10;;;15.65;;
37715;SDS011;23562;50.540;12.504;2023-10-19T08:37:19;22.55;;;15.70;;
37715;SDS011;23562;50.540;12.504;2023-10-19T08:39:44;21.80;;;16.30;;
37715;SDS011;23562;50.540;12.504;2023-10-19T08:42:09;26.52;;;18.27;;
37715;SDS011;23562;50.540;12.504;2023-10-19T08:44:35;27.63;;;18.08;;
37715;SDS011;23562;50.540;12.504;2023-10-19T08:47:01;22.23;;;15.48;;
37715;SDS011;23562;50.540;12.504;2023-10-19T08:49:26;18.13;;;14.37;;
37715;SDS011;23562;50.540;12.504;2023-10-19T08:51:52;18.30;;;13.30;;
37715;SDS011;23562;50.540;12.504;2023-10-19T08:54:18;24.02;;;17.35;;
37715;SDS011;23562;50.540;12.504;2023-10-19T08:56:44;22.23;;;15.43;;
37715;SDS011;23562;50.540;12.504;2023-10-19T08:59:09;18.92;;;12.68;;
37715;SDS011;23562;50.540;12.504;2023-10-19T09:01:36;16.15;;;12.60;;
37715;SDS011;23562;50.540;12.504;2023-10-19T09:04:01;15.25;;;11.57;;
37715;SDS011;23562;50.540;12.504;2023-10-19T09:06:27;16.40;;;12.07;;
37715;SDS011;23562;50.540;12.504;2023-10-19T09:08:54;17.38;;;12.23;;
37715;SDS011;23562;50.540;12.504;2023-10-19T09:11:19;17.52;;;12.23;;
37715;SDS011;23562;50.540;12.504;2023-10-19T09:13:49;20.02;;;12.73;;
37715;SDS011;23562;50.540;12.504;2023-10-19T09:16:18;16.63;;;12.35;;
37715;SDS011;23562;50.540;12.504;2023-10-19T09:18:44;15.87;;;11.77;;
37715;SDS011;23562;50.540;12.504;2023-10-19T09:21:10;13.60;;;10.53;;
37715;SDS011;23562;50.540;12.504;2023-10-19T09:23:46;15.18;;;11.05;;
37715;SDS011;23562;50.540;12.504;2023-10-19T09:26:12;14.85;;;10.68;;
37715;SDS011;23562;50.540;12.504;2023-10-19T09:28:37;12.30;;;9.65;;
37715;SDS011;23562;50.540;12.504;2023-10-19T09:31:03;13.87;;;10.03;;
37715;SDS011;23562;50.540;12.504;2023-10-19T09:33:28;12.57;;;8.77;;
37715;SDS011;23562;50.540;12.504;2023-10-19T09:35:54;10.98;;;8.77;;
37715;SDS011;23562;50.540;12.504;2023-10-19T09:38:21;10.30;;;7.57;;
37715;SDS011;23562;50.540;12.504;2023-10-19T09:40:53;15.18;;;11.45;;
37715;SDS011;23562;50.540;12.504;2023-10-19T09:45:51;13.55;;;10.13;;
37715;SDS011;23562;50.540;12.504;2023-10-19T09:48:16;11.38;;;9.43;;
37715;SDS011;23562;50.540;12.504;2023-10-19T09:50:43;11.90;;;9.55;;
37715;SDS011;23562;50.540;12.504;2023-10-19T09:53:09;10.20;;;7.82;;
37715;SDS011;23562;50.540;12.504;2023-10-19T09:55:37;10.15;;;8.15;;
37715;SDS011;23562;50.540;12.504;2023-10-19T09:58:06;9.15;;;7.18;;
37715;SDS011;23562;50.540;12.504;2023-10-19T10:00:33;9.40;;;7.40;;
37715;SDS011;23562;50.540;12.504;2023-10-19T10:02:59;7.75;;;6.40;;
37715;SDS011;23562;50.540;12.504;2023-10-19T10:10:42;7.13;;;6.28;;
37715;SDS011;23562;50.540;12.504;2023-10-19T10:15:57;9.52;;;5.93;;
37715;SDS011;23562;50.540;12.504;2023-10-19T10:18:26;10.32;;;7.30;;
37715;SDS011;23562;50.540;12.504;2023-10-19T10:23:30;7.95;;;6.50;;
37715;SDS011;23562;50.540;12.504;2023-10-19T10:25:59;19.77;;;10.52;;
37715;SDS011;23562;50.540;12.504;2023-10-19T10:28:24;7.50;;;5.63;;
37715;SDS011;23562;50.540;12.504;2023-10-19T10:33:40;8.45;;;6.22;;
37715;SDS011;23562;50.540;12.504;2023-10-19T10:36:06;8.18;;;6.32;;
37715;SDS011;23562;50.540;12.504;2023-10-19T10:38:33;8.48;;;6.50;;
37715;SDS011;23562;50.540;12.504;2023-10-19T10:40:58;9.60;;;6.80;;
37715;SDS011;23562;50.540;12.504;2023-10-19T10:43:23;9.63;;;7.43;;
37715;SDS011;23562;50.540;12.504;2023-10-19T10:45:48;12.88;;;8.73;;
37715;SDS011;23562;50.540;12.504;2023-10-19T10:48:14;16.43;;;10.33;;
37715;SDS011;23562;50.540;12.504;2023-10-19T10:50:39;10.43;;;7.32;;
37715;SDS011;23562;50.540;12.504;2023-10-19T10:53:06;11.75;;;8.80;;
37715;SDS011;23562;50.540;12.504;2023-10-19T10:55:31;16.20;;;11.00;;
37715;SDS011;23562;50.540;12.504;2023-10-19T10:57:57;13.15;;;10.18;;
37715;SDS011;23562;50.540;12.504;2023-10-19T11:00:22;12.55;;;9.32;;
37715;SDS011;23562;50.540;12.504;2023-10-19T11:03:00;10.95;;;8.00;;
37715;SDS011;23562;50.540;12.504;2023-10-19T11:05:26;14.73;;;9.20;;
37715;SDS011;23562;50.540;12.504;2023-10-19T11:08:05;13.93;;;8.85;;
37715;SDS011;23562;50.540;12.504;2023-10-19T11:10:31;19.13;;;12.15;;
37715;SDS011;23562;50.540;12.504;2023-10-19T11:12:59;16.63;;;11.50;;
37715;SDS011;23562;50.540;12.504;2023-10-19T11:15:25;14.02;;;9.90;;
37715;SDS011;23562;50.540;12.504;2023-10-19T11:17:50;29.92;;;15.45;;
37715;SDS011;23562;50.540;12.504;2023-10-19T11:20:22;21.65;;;13.10;;
37715;SDS011;23562;50.540;12.504;2023-10-19T11:22:48;14.32;;;11.10;;
37715;SDS011;23562;50.540;12.504;2023-10-19T11:25:17;16.52;;;11.50;;
37715;SDS011;23562;50.540;12.504;2023-10-19T11:27:42;19.10;;;12.65;;
37715;SDS011;23562;50.540;12.504;2023-10-19T11:30:08;12.90;;;9.48;;
37715;SDS011;23562;50.540;12.504;2023-10-19T11:32:36;14.82;;;11.02;;
37715;SDS011;23562;50.540;12.504;2023-10-19T11:35:05;15.70;;;11.40;;
37715;SDS011;23562;50.540;12.504;2023-10-19T11:37:45;15.88;;;10.30;;
37715;SDS011;23562;50.540;12.504;2023-10-19T11:40:10;14.48;;;10.80;;
37715;SDS011;23562;50.540;12.504;2023-10-19T11:42:35;17.17;;;10.70;;
37715;SDS011;23562;50.540;12.504;2023-10-19T11:45:01;14.70;;;10.38;;
37715;SDS011;23562;50.540;12.504;2023-10-19T11:47:27;16.83;;;10.83;;
37715;SDS011;23562;50.540;12.504;2023-10-19T11:49:52;13.60;;;10.07;;
37715;SDS011;23562;50.540;12.504;2023-10-19T11:52:19;13.40;;;10.38;;
37715;SDS011;23562;50.540;12.504;2023-10-19T11:54:44;14.90;;;10.30;;
37715;SDS011;23562;50.540;12.504;2023-10-19T11:57:09;14.93;;;9.97;;
37715;SDS011;23562;50.540;12.504;2023-10-19T11:59:34;16.00;;;11.07;;
37715;SDS011;23562;50.540;12.504;2023-10-19T12:02:00;15.57;;;10.30;;
37715;SDS011;23562;50.540;12.504;2023-10-19T12:04:28;14.07;;;9.75;;
37715;SDS011;23562;50.540;12.504;2023-10-19T12:06:54;14.25;;;9.48;;
37715;SDS011;23562;50.540;12.504;2023-10-19T12:09:20;13.52;;;8.93;;
37715;SDS011;23562;50.540;12.504;2023-10-19T12:11:49;16.65;;;9.93;;
37715;SDS011;23562;50.540;12.504;2023-10-19T12:14:14;13.32;;;7.65;;
37715;SDS011;23562;50.540;12.504;2023-10-19T12:16:40;9.82;;;7.03;;
37715;SDS011;23562;50.540;12.504;2023-10-19T12:19:05;12.00;;;7.25;;
37715;SDS011;23562;50.540;12.504;2023-10-19T12:21:30;10.95;;;7.38;;
37715;SDS011;23562;50.540;12.504;2023-10-19T12:23:58;9.93;;;6.78;;
37715;SDS011;23562;50.540;12.504;2023-10-19T12:26:26;9.73;;;7.05;;
37715;SDS011;23562;50.540;12.504;2023-10-19T12:28:51;14.17;;;8.10;;
37715;SDS011;23562;50.540;12.504;2023-10-19T12:31:16;12.18;;;8.60;;
37715;SDS011;23562;50.540;12.504;2023-10-19T12:33:43;11.35;;;7.47;;
37715;SDS011;23562;50.540;12.504;2023-10-19T12:36:10;11.13;;;7.43;;
37715;SDS011;23562;50.540;12.504;2023-10-19T12:38:53;11.25;;;8.18;;
37715;SDS011;23562;50.540;12.504;2023-10-19T12:41:19;11.13;;;7.28;;
37715;SDS011;23562;50.540;12.504;2023-10-19T12:43:45;10.73;;;7.72;;
37715;SDS011;23562;50.540;12.504;2023-10-19T12:46:13;8.68;;;6.80;;
37715;SDS011;23562;50.540;12.504;2023-10-19T12:48:39;10.35;;;6.43;;
37715;SDS011;23562;50.540;12.504;2023-10-19T12:51:04;10.95;;;7.40;;
37715;SDS011;23562;50.540;12.504;2023-10-19T12:53:36;9.25;;;6.57;;
37715;SDS011;23562;50.540;12.504;2023-10-19T12:56:03;7.40;;;5.95;;
37715;SDS011;23562;50.540;12.504;2023-10-19T12:58:28;8.40;;;5.97;;
37715;SDS011;23562;50.540;12.504;2023-10-19T13:00:54;11.10;;;5.75;;
37715;SDS011;23562;50.540;12.504;2023-10-19T13:03:20;8.40;;;5.70;;
37715;SDS011;23562;50.540;12.504;2023-10-19T13:05:47;7.60;;;5.25;;
37715;SDS011;23562;50.540;12.504;2023-10-19T13:08:12;9.88;;;5.57;;
37715;SDS011;23562;50.540;12.504;2023-10-19T13:10:41;9.57;;;6.93;;
37715;SDS011;23562;50.540;12.504;2023-10-19T13:13:08;9.43;;;4.95;;
37715;SDS011;23562;50.540;12.504;2023-10-19T13:15:37;13.48;;;8.80;;
37715;SDS011;23562;50.540;12.504;2023-10-19T13:18:03;8.25;;;4.68;;
37715;SDS011;23562;50.540;12.504;2023-10-19T13:20:29;8.20;;;4.80;;
37715;SDS011;23562;50.540;12.504;2023-10-19T13:23:04;5.13;;;4.47;;
37715;SDS011;23562;50.540;12.504;2023-10-19T13:25:32;7.63;;;5.40;;
37715;SDS011;23562;50.540;12.504;2023-10-19T13:28:05;7.95;;;5.65;;
37715;SDS011;23562;50.540;12.504;2023-10-19T13:30:30;17.30;;;8.43;;
37715;SDS011;23562;50.540;12.504;2023-10-19T13:32:56;12.70;;;7.03;;
37715;SDS011;23562;50.540;12.504;2023-10-19T13:35:21;8.23;;;6.25;;
37715;SDS011;23562;50.540;12.504;2023-10-19T13:37:46;11.20;;;6.18;;
37715;SDS011;23562;50.540;12.504;2023-10-19T13:40:11;7.88;;;5.60;;
37715;SDS011;23562;50.540;12.504;2023-10-19T13:42:36;10.63;;;5.80;;
37715;SDS011;23562;50.540;12.504;2023-10-19T13:45:02;9.37;;;6.07;;
37715;SDS011;23562;50.540;12.504;2023-10-19T13:47:27;8.67;;;5.80;;
37715;SDS011;23562;50.540;12.504;2023-10-19T13:49:52;10.55;;;5.97;;
37715;SDS011;23562;50.540;12.504;2023-10-19T13:52:17;8.50;;;5.20;;
37715;SDS011;23562;50.540;12.504;2023-10-19T13:54:44;9.38;;;5.22;;
37715;SDS011;23562;50.540;12.504;2023-10-19T13:57:09;6.20;;;4.65;;
37715;SDS011;23562;50.540;12.504;2023-10-19T13:59:35;6.60;;;4.93;;
37715;SDS011;23562;50.540;12.504;2023-10-19T14:02:00;12.37;;;7.70;;
37715;SDS011;23562;50.540;12.504;2023-10-19T14:04:25;11.27;;;7.93;;
37715;SDS011;23562;50.540;12.504;2023-10-19T14:06:51;11.95;;;7.70;;
37715;SDS011;23562;50.540;12.504;2023-10-19T14:09:16;11.13;;;6.68;;
37715;SDS011;23562;50.540;12.504;2023-10-19T14:11:42;9.57;;;6.45;;
37715;SDS011;23562;50.540;12.504;2023-10-19T14:14:09;9.70;;;7.32;;
37715;SDS011;23562;50.540;12.504;2023-10-19T14:16:35;13.18;;;8.95;;
37715;SDS011;23562;50.540;12.504;2023-10-19T14:19:01;15.88;;;8.30;;
37715;SDS011;23562;50.540;12.504;2023-10-19T14:21:27;29.70;;;15.02;;
37715;SDS011;23562;50.540;12.504;2023-10-19T14:23:53;14.93;;;9.47;;
37715;SDS011;23562;50.540;12.504;2023-10-19T14:26:19;13.80;;;8.52;;
37715;SDS011;23562;50.540;12.504;2023-10-19T14:28:44;13.55;;;8.73;;
37715;SDS011;23562;50.540;12.504;2023-10-19T14:31:09;9.75;;;7.63;;
37715;SDS011;23562;50.540;12.504;2023-10-19T14:33:35;11.63;;;7.50;;